Time;durP1;ratioP1;P1;durP2;ratioP2;P2;SDS_P1;SDS_P2;PMS_P1;PMS_P2;Temp;Humidity;BMP_temperature;BMP_pressure;BME280_temperature;BME280_humidity;BME280_pressure;Samples;Min_cycle;Max_cycle;Signal;HPM_P1;HPM_P2
2021/09/10 00:00:52;;;;;;;59.60;5.23;;;16.60;1.00;;;;;;5053040;28;20479;-70
2021/09/10 00:03:20;;;;;;;59.47;3.00;;;16.60;1.00;;;;;;5052412;28;20517;-70
2021/09/10 00:05:47;;;;;;;58.43;2.80;;;16.60;1.00;;;;;;5051777;28;20491;-70
2021/09/10 00:08:14;;;;;;;58.13;2.73;;;16.60;1.00;;;;;;5052297;28;20537;-70
2021/09/10 00:10:41;;;;;;;59.27;3.63;;;16.60;1.00;;;;;;5055516;28;20496;-70
2021/09/10 00:13:08;;;;;;;58.70;3.20;;;16.60;1.00;;;;;;5055556;28;20562;-69
2021/09/10 00:15:35;;;;;;;60.70;4.00;;;16.50;1.00;;;;;;5055463;28;20939;-69
2021/09/10 00:18:02;;;;;;;58.77;2.80;;;16.50;1.00;;;;;;5054950;28;21021;-69
2021/09/10 00:20:30;;;;;;;59.37;3.87;;;16.50;1.00;;;;;;5055179;28;20456;-69
2021/09/10 00:22:57;;;;;;;58.70;3.30;;;16.50;1.00;;;;;;5055460;28;20559;-69
2021/09/10 00:25:23;;;;;;;58.83;3.90;;;16.40;1.00;;;;;;5055463;28;20859;-69
2021/09/10 00:27:50;;;;;;;59.10;3.83;;;16.40;1.00;;;;;;5055424;28;20455;-70
2021/09/10 00:30:17;;;;;;;58.40;3.00;;;16.40;1.00;;;;;;5055127;28;20457;-70
2021/09/10 00:32:44;;;;;;;58.70;2.80;;;16.40;1.00;;;;;;5054998;28;20551;-70
2021/09/10 00:35:12;;;;;;;58.93;3.30;;;16.30;1.00;;;;;;5055152;28;20461;-69
2021/09/10 00:37:40;;;;;;;58.60;2.80;;;16.30;1.00;;;;;;5055238;28;20450;-69
2021/09/10 00:40:08;;;;;;;58.70;2.90;;;16.30;1.00;;;;;;5054912;28;20534;-70
2021/09/10 00:42:35;;;;;;;58.60;3.00;;;16.30;1.00;;;;;;5054963;28;20530;-70
2021/09/10 00:45:02;;;;;;;58.50;2.90;;;16.30;1.00;;;;;;5054895;28;20967;-70
2021/09/10 00:47:29;;;;;;;58.43;3.00;;;16.20;1.00;;;;;;5054828;28;20965;-70
2021/09/10 00:49:56;;;;;;;58.43;3.40;;;16.20;1.00;;;;;;5054766;28;20457;-70
2021/09/10 00:52:23;;;;;;;58.80;2.90;;;16.10;1.00;;;;;;5054908;28;20547;-71
2021/09/10 00:54:51;;;;;;;58.60;2.80;;;16.10;1.00;;;;;;5054920;28;20455;-71
2021/09/10 00:57:19;;;;;;;58.97;3.37;;;16.10;1.00;;;;;;5054780;28;20498;-71
2021/09/10 00:59:45;;;;;;;58.60;3.13;;;16.10;1.00;;;;;;5054393;28;20465;-71
2021/09/10 01:02:13;;;;;;;58.60;2.90;;;16.10;1.00;;;;;;5054487;28;20462;-71
2021/09/10 01:04:41;;;;;;;58.80;3.50;;;16.10;1.00;;;;;;5052837;28;20474;-71
2021/09/10 01:07:08;;;;;;;59.00;3.73;;;16.00;1.00;;;;;;5054289;28;20483;-71
2021/09/10 01:09:36;;;;;;;58.87;3.60;;;16.00;1.00;;;;;;5054285;28;20454;-71
2021/09/10 01:12:05;;;;;;;60.30;4.17;;;16.00;1.00;;;;;;5054624;28;20541;-71
2021/09/10 01:14:34;;;;;;;59.50;4.17;;;16.00;1.00;;;;;;5054478;28;20900;-71
2021/09/10 01:17:01;;;;;;;59.10;3.60;;;16.00;1.00;;;;;;5054375;28;20883;-71
2021/09/10 01:19:30;;;;;;;58.70;2.87;;;16.00;1.00;;;;;;5053975;28;20546;-71
2021/09/10 01:21:58;;;;;;;58.93;3.63;;;16.00;1.00;;;;;;5054281;28;20504;-71
2021/09/10 01:24:29;;;;;;;58.50;2.87;;;16.00;1.00;;;;;;5054338;28;20558;-71
2021/09/10 01:26:56;;;;;;;58.37;3.10;;;16.00;1.00;;;;;;5054322;28;20584;-71
2021/09/10 01:29:23;;;;;;;60.37;4.80;;;15.90;1.00;;;;;;5054128;28;20479;-71
2021/09/10 01:31:50;;;;;;;58.70;3.57;;;15.90;1.00;;;;;;5054031;28;20457;-71
2021/09/10 01:34:17;;;;;;;58.70;3.90;;;15.90;1.00;;;;;;5053841;28;20475;-71
2021/09/10 01:36:44;;;;;;;58.80;3.27;;;15.90;1.00;;;;;;5054133;28;20478;-71
2021/09/10 01:39:11;;;;;;;58.63;3.00;;;15.90;1.00;;;;;;5053891;28;20585;-71
2021/09/10 01:41:39;;;;;;;58.67;3.10;;;15.90;1.00;;;;;;5054035;28;20450;-71
2021/09/10 01:44:06;;;;;;;58.80;3.17;;;15.90;1.00;;;;;;5053690;28;20558;-71
2021/09/10 01:46:33;;;;;;;58.70;3.00;;;15.90;1.00;;;;;;5054305;28;20533;-71
2021/09/10 01:49:00;;;;;;;58.70;3.53;;;15.90;1.00;;;;;;5053678;28;20457;-71
2021/09/10 01:51:30;;;;;;;58.50;2.97;;;15.90;1.00;;;;;;5053668;28;20459;-71
2021/09/10 01:53:57;;;;;;;58.37;2.77;;;15.90;1.00;;;;;;5053823;28;20474;-71
2021/09/10 01:56:25;;;;;;;58.80;3.20;;;15.90;1.00;;;;;;5053603;28;20921;-71
2021/09/10 01:58:53;;;;;;;58.60;3.00;;;15.90;1.00;;;;;;5053563;28;21017;-71
2021/09/10 02:01:24;;;;;;;58.80;3.10;;;15.90;1.00;;;;;;5053544;28;20458;-71
2021/09/10 02:03:51;;;;;;;58.70;3.13;;;15.90;1.00;;;;;;5053390;28;20926;-71
2021/09/10 02:06:19;;;;;;;58.67;3.30;;;15.90;1.00;;;;;;5053338;28;20450;-71
2021/09/10 02:08:47;;;;;;;59.93;3.43;;;15.90;1.00;;;;;;5053388;28;20485;-71
2021/09/10 02:11:14;;;;;;;58.50;3.10;;;15.80;1.00;;;;;;5053132;28;20971;-71
2021/09/10 02:13:41;;;;;;;58.23;2.83;;;15.80;1.00;;;;;;5053115;28;20629;-71
2021/09/10 02:16:11;;;;;;;58.60;3.17;;;15.80;1.00;;;;;;5053129;28;20573;-71
2021/09/10 02:18:38;;;;;;;58.93;3.57;;;15.80;1.00;;;;;;5053356;28;20486;-71
2021/09/10 02:21:06;;;;;;;58.77;3.73;;;15.80;1.00;;;;;;5053116;28;20532;-71
2021/09/10 02:23:33;;;;;;;58.70;3.20;;;15.70;1.00;;;;;;5053069;28;20569;-68
2021/09/10 02:26:00;;;;;;;58.37;2.90;;;15.70;1.00;;;;;;5053003;28;20446;-68
2021/09/10 02:28:27;;;;;;;58.63;3.30;;;15.60;1.00;;;;;;5052917;28;20454;-68
2021/09/10 02:30:54;;;;;;;58.43;3.00;;;15.60;1.00;;;;;;5052320;28;20545;-70
2021/09/10 02:33:22;;;;;;;58.80;3.23;;;15.50;1.00;;;;;;5052985;28;20467;-70
2021/09/10 02:35:49;;;;;;;58.47;3.00;;;15.50;1.00;;;;;;5052870;28;20901;-70
2021/09/10 02:38:16;;;;;;;58.27;2.67;;;15.50;1.00;;;;;;5052798;28;20448;-70
2021/09/10 02:40:43;;;;;;;58.57;2.60;;;15.50;1.00;;;;;;5052599;28;20447;-71
2021/09/10 02:43:10;;;;;;;58.57;3.00;;;15.40;1.00;;;;;;5052775;28;20473;-71
2021/09/10 02:45:37;;;;;;;58.90;2.90;;;15.40;1.00;;;;;;5053108;28;20456;-71
2021/09/10 02:48:04;;;;;;;58.90;3.70;;;15.40;1.00;;;;;;5052709;28;20451;-71
2021/09/10 02:50:32;;;;;;;58.90;3.40;;;15.40;1.00;;;;;;5052655;28;20456;-71
2021/09/10 02:52:59;;;;;;;58.90;3.23;;;15.30;1.00;;;;;;5052732;28;20560;-71
2021/09/10 02:55:26;;;;;;;59.20;4.00;;;15.30;1.00;;;;;;5052623;28;20549;-71
2021/09/10 02:57:53;;;;;;;58.57;3.43;;;15.30;1.00;;;;;;5052609;28;20485;-71
2021/09/10 03:00:20;;;;;;;58.43;2.77;;;15.30;1.00;;;;;;5052499;28;21079;-71
2021/09/10 03:02:47;;;;;;;58.47;2.90;;;15.30;1.00;;;;;;5052201;28;20489;-71
2021/09/10 03:05:14;;;;;;;58.80;3.60;;;15.30;1.00;;;;;;5052576;28;20540;-71
2021/09/10 03:07:43;;;;;;;58.37;2.80;;;15.30;1.00;;;;;;5052327;28;20806;-71
2021/09/10 03:10:11;;;;;;;58.17;2.60;;;15.30;1.00;;;;;;5051780;28;20957;-71
2021/09/10 03:12:41;;;;;;;59.37;3.30;;;15.30;1.00;;;;;;5052338;28;20533;-71
2021/09/10 03:15:10;;;;;;;58.47;2.90;;;15.30;1.00;;;;;;5052134;28;20968;-71
2021/09/10 03:17:38;;;;;;;58.50;2.80;;;15.40;1.00;;;;;;5052116;28;20486;-71
2021/09/10 03:20:06;;;;;;;58.47;3.03;;;15.30;1.00;;;;;;5051990;28;20882;-71
2021/09/10 03:22:33;;;;;;;58.27;2.80;;;15.30;1.00;;;;;;5052218;28;20444;-71
2021/09/10 03:25:02;;;;;;;59.00;3.23;;;15.30;1.00;;;;;;5052102;28;21032;-71
2021/09/10 03:27:29;;;;;;;58.37;2.70;;;15.30;1.00;;;;;;5052136;28;20446;-71
2021/09/10 03:29:56;;;;;;;58.57;3.33;;;15.40;1.00;;;;;;5051761;28;20548;-71
2021/09/10 03:32:23;;;;;;;58.33;2.60;;;15.40;1.00;;;;;;5051823;28;20448;-71
2021/09/10 03:34:50;;;;;;;59.77;2.87;;;15.40;1.00;;;;;;5051797;28;21004;-71
2021/09/10 03:37:17;;;;;;;58.90;3.00;;;15.50;1.00;;;;;;5051621;28;20492;-71
2021/09/10 03:39:44;;;;;;;58.77;3.00;;;15.50;1.00;;;;;;5051853;28;20544;-71
2021/09/10 03:42:12;;;;;;;58.83;3.07;;;15.50;1.00;;;;;;5052098;28;20445;-71
2021/09/10 03:44:39;;;;;;;59.53;3.40;;;15.50;1.00;;;;;;5051934;28;20486;-71
2021/09/10 03:47:06;;;;;;;58.80;3.27;;;15.50;1.00;;;;;;5051817;28;20525;-71
2021/09/10 03:49:34;;;;;;;59.27;3.33;;;15.50;1.00;;;;;;5051561;28;20453;-71
2021/09/10 03:52:01;;;;;;;58.60;2.80;;;15.60;1.00;;;;;;5052150;28;20884;-71
2021/09/10 03:54:28;;;;;;;58.33;2.67;;;15.60;1.00;;;;;;5051804;28;20504;-71
2021/09/10 03:56:55;;;;;;;58.47;3.20;;;15.60;1.00;;;;;;5051691;28;20482;-70
2021/09/10 03:59:23;;;;;;;59.00;3.57;;;15.60;1.00;;;;;;5051802;28;20534;-71
2021/09/10 04:01:51;;;;;;;58.13;2.60;;;15.60;1.00;;;;;;5051722;28;20478;-71
2021/09/10 04:04:18;;;;;;;58.37;2.60;;;15.60;1.00;;;;;;5052305;28;21032;-71
2021/09/10 04:06:45;;;;;;;58.33;2.50;;;15.60;1.00;;;;;;5052429;28;20540;-71
2021/09/10 04:09:12;;;;;;;58.30;2.80;;;15.60;1.00;;;;;;5051678;28;20492;-71
2021/09/10 04:11:39;;;;;;;58.27;2.60;;;15.60;1.00;;;;;;5051584;28;21015;-71
2021/09/10 04:14:06;;;;;;;58.40;2.83;;;15.60;1.00;;;;;;5051489;28;20803;-71
2021/09/10 04:16:34;;;;;;;58.77;3.40;;;15.60;1.00;;;;;;5051856;28;20483;-71
2021/09/10 04:19:01;;;;;;;58.60;2.70;;;15.60;1.00;;;;;;5051265;28;20482;-70
2021/09/10 04:21:28;;;;;;;58.40;2.90;;;15.60;1.00;;;;;;5051716;28;20483;-70
2021/09/10 04:23:56;;;;;;;58.30;2.97;;;15.60;1.00;;;;;;5051255;28;21025;-70
2021/09/10 04:26:23;;;;;;;58.63;3.07;;;15.50;1.00;;;;;;5051400;28;20549;-70
2021/09/10 04:28:50;;;;;;;58.33;3.07;;;15.50;1.00;;;;;;5051568;28;20892;-70
2021/09/10 04:31:18;;;;;;;58.20;3.00;;;15.50;1.00;;;;;;5051071;28;20832;-70
2021/09/10 04:33:47;;;;;;;58.30;2.77;;;15.50;1.00;;;;;;5051468;28;20476;-70
2021/09/10 04:36:15;;;;;;;58.67;3.57;;;15.50;1.00;;;;;;5051382;28;20479;-70
2021/09/10 04:38:42;;;;;;;59.00;3.20;;;15.50;1.00;;;;;;5051335;28;20451;-70
2021/09/10 04:41:09;;;;;;;58.80;3.87;;;15.50;1.00;;;;;;5051252;28;20718;-70
2021/09/10 04:43:35;;;;;;;58.43;2.80;;;15.60;1.00;;;;;;5051256;28;20550;-71
2021/09/10 04:46:02;;;;;;;59.50;3.73;;;15.60;1.00;;;;;;5051054;28;20537;-71
2021/09/10 04:48:29;;;;;;;59.30;3.90;;;15.60;1.00;;;;;;5051494;28;20537;-71
2021/09/10 04:50:57;;;;;;;59.10;3.33;;;15.50;1.00;;;;;;5051120;28;20512;-71
2021/09/10 04:53:24;;;;;;;58.10;2.53;;;15.50;1.00;;;;;;5051018;28;20474;-71
2021/09/10 04:55:51;;;;;;;59.47;3.10;;;15.40;1.00;;;;;;5054225;28;20550;-71
2021/09/10 04:58:18;;;;;;;58.30;2.80;;;15.40;1.00;;;;;;5054856;28;20529;-71
2021/09/10 05:00:45;;;;;;;58.60;3.03;;;15.40;1.00;;;;;;5054385;28;20451;-71
2021/09/10 05:03:12;;;;;;;58.50;3.17;;;15.40;1.00;;;;;;5054431;28;20990;-71
2021/09/10 05:05:38;;;;;;;58.47;2.70;;;15.50;1.00;;;;;;5054975;28;20549;-71
2021/09/10 05:08:07;;;;;;;58.30;2.73;;;15.50;1.00;;;;;;5054666;28;20830;-71
2021/09/10 05:10:34;;;;;;;58.30;3.20;;;15.40;1.00;;;;;;5054383;28;20454;-71
2021/09/10 05:13:00;;;;;;;60.10;5.30;;;15.40;1.00;;;;;;5054390;28;21001;-71
2021/09/10 05:15:27;;;;;;;58.50;2.87;;;15.40;1.00;;;;;;5054698;28;20455;-71
2021/09/10 05:17:54;;;;;;;58.40;3.20;;;15.40;1.00;;;;;;5054505;28;20492;-71
2021/09/10 05:20:21;;;;;;;58.70;2.80;;;15.40;1.00;;;;;;5054312;28;20445;-71
2021/09/10 05:22:50;;;;;;;58.27;2.77;;;15.40;1.00;;;;;;5054232;28;20518;-71
2021/09/10 05:25:18;;;;;;;58.70;3.10;;;15.40;1.00;;;;;;5054434;28;20457;-71
2021/09/10 05:27:46;;;;;;;58.37;3.10;;;15.50;1.00;;;;;;5054209;28;20522;-71
2021/09/10 05:30:13;;;;;;;58.60;3.27;;;15.50;1.00;;;;;;5053971;28;20540;-71
2021/09/10 05:32:40;;;;;;;58.30;3.03;;;15.50;1.00;;;;;;5054164;28;20474;-71
2021/09/10 05:35:09;;;;;;;58.40;3.13;;;15.60;1.00;;;;;;5054493;28;20445;-71
2021/09/10 05:37:35;;;;;;;58.87;3.63;;;15.60;1.00;;;;;;5054050;28;20513;-71
2021/09/10 05:40:03;;;;;;;58.30;3.00;;;15.60;1.00;;;;;;5053724;28;21041;-71
2021/09/10 05:42:31;;;;;;;57.97;2.60;;;15.60;1.00;;;;;;5054299;28;20482;-71
2021/09/10 05:44:58;;;;;;;58.30;3.00;;;15.60;1.00;;;;;;5054147;28;20469;-71
2021/09/10 05:47:25;;;;;;;58.17;2.87;;;15.60;1.00;;;;;;5053878;28;20448;-70
2021/09/10 05:49:52;;;;;;;58.57;3.27;;;15.60;1.00;;;;;;5053703;28;20450;-70
2021/09/10 05:52:18;;;;;;;58.30;2.60;;;15.60;1.00;;;;;;5053800;28;20870;-70
2021/09/10 05:54:45;;;;;;;58.80;3.57;;;15.60;1.00;;;;;;5053595;28;21012;-71
2021/09/10 05:57:12;;;;;;;58.33;2.90;;;15.60;1.00;;;;;;5053412;28;20575;-71
2021/09/10 05:59:40;;;;;;;58.50;3.30;;;15.60;1.00;;;;;;5053575;28;20533;-71
2021/09/10 06:02:07;;;;;;;58.33;2.87;;;15.60;1.00;;;;;;5053648;28;20534;-71
2021/09/10 06:04:34;;;;;;;58.17;3.40;;;15.60;1.00;;;;;;5053573;28;20572;-70
2021/09/10 06:07:01;;;;;;;59.67;3.30;;;15.60;1.00;;;;;;5052346;28;20443;-70
2021/09/10 06:09:28;;;;;;;58.80;3.00;;;15.70;1.00;;;;;;5053058;28;20482;-70
2021/09/10 06:11:55;;;;;;;58.57;3.00;;;15.70;1.00;;;;;;5053375;28;20450;-70
2021/09/10 06:14:22;;;;;;;58.50;3.00;;;15.70;1.00;;;;;;5053437;28;20466;-70
2021/09/10 06:16:51;;;;;;;58.10;2.50;;;15.80;1.00;;;;;;5053217;28;20542;-71
2021/09/10 06:19:17;;;;;;;58.27;2.80;;;15.80;1.00;;;;;;5053436;28;21033;-71
2021/09/10 06:21:44;;;;;;;58.60;3.23;;;15.90;1.00;;;;;;5053165;28;20536;-70
2021/09/10 06:24:11;;;;;;;58.27;2.90;;;15.90;1.00;;;;;;5051239;28;20995;-70
2021/09/10 06:26:38;;;;;;;59.50;3.50;;;16.00;1.00;;;;;;5052896;28;20459;-70
2021/09/10 06:29:05;;;;;;;58.90;3.87;;;16.10;1.00;;;;;;5052757;28;20530;-70
2021/09/10 06:31:32;;;;;;;58.70;2.70;;;16.20;1.00;;;;;;5052882;28;20446;-71
2021/09/10 06:34:00;;;;;;;58.37;3.17;;;16.20;1.00;;;;;;5053306;28;21070;-71
2021/09/10 06:36:27;;;;;;;58.20;3.10;;;16.30;1.00;;;;;;5052049;28;20893;-69
2021/09/10 06:38:53;;;;;;;59.10;3.27;;;16.30;1.00;;;;;;5051771;28;20922;-69
2021/09/10 06:41:20;;;;;;;60.65;4.05;;;16.40;1.00;;;;;;5052654;28;20428;-70
2021/09/10 06:43:47;;;;;;;58.40;3.00;;;16.40;1.00;;;;;;5052878;28;20235;-70
2021/09/10 06:46:14;;;;;;;58.17;2.90;;;16.50;1.00;;;;;;5052759;28;20709;-70
2021/09/10 06:48:41;;;;;;;58.17;2.60;;;16.60;1.00;;;;;;5052655;28;21017;-70
2021/09/10 06:51:09;;;;;;;58.33;2.90;;;16.70;1.00;;;;;;5052278;28;20454;-70
2021/09/10 06:53:36;;;;;;;58.50;3.57;;;16.70;1.00;;;;;;5052683;28;20573;-70
2021/09/10 06:56:04;;;;;;;60.20;4.33;;;16.80;1.00;;;;;;5052664;28;20479;-70
2021/09/10 06:58:33;;;;;;;58.80;3.00;;;16.80;1.00;;;;;;5051652;28;20573;-70
2021/09/10 07:00:59;;;;;;;58.23;2.70;;;16.90;1.00;;;;;;5071681;28;20496;-70
2021/09/10 07:03:26;;;;;;;58.50;2.57;;;17.00;1.00;;;;;;5072090;28;20507;-70
2021/09/10 07:05:53;;;;;;;58.50;2.80;;;17.10;1.00;;;;;;5072291;28;20566;-70
2021/09/10 07:08:21;;;;;;;58.40;2.97;;;17.20;1.00;;;;;;5072375;28;20446;-70
2021/09/10 07:10:48;;;;;;;58.70;3.97;;;17.30;1.00;;;;;;5072070;28;20534;-70
2021/09/10 07:13:15;;;;;;;58.47;2.93;;;17.40;1.00;;;;;;5072155;28;20475;-70
2021/09/10 07:15:42;;;;;;;58.10;2.57;;;17.50;1.00;;;;;;5072208;28;20450;-70
2021/09/10 07:18:10;;;;;;;58.00;2.50;;;17.60;1.00;;;;;;5071589;28;20805;-70
2021/09/10 07:20:37;;;;;;;58.67;3.20;;;17.70;1.00;;;;;;5071732;28;20541;-70
2021/09/10 07:23:04;;;;;;;58.20;3.03;;;17.80;1.00;;;;;;5071906;28;20548;-70
2021/09/10 07:25:32;;;;;;;58.20;2.70;;;17.90;1.00;;;;;;5072038;28;21041;-70
2021/09/10 07:27:59;;;;;;;58.10;3.07;;;18.00;1.00;;;;;;5071983;28;20532;-70
2021/09/10 07:30:25;;;;;;;57.87;2.60;;;18.10;1.00;;;;;;5071627;28;20453;-70
2021/09/10 07:32:52;;;;;;;58.20;2.87;;;18.30;1.00;;;;;;5071808;28;20561;-70
2021/09/10 07:35:19;;;;;;;59.23;3.10;;;18.40;1.00;;;;;;5071918;28;20453;-70
2021/09/10 07:37:48;;;;;;;58.97;3.70;;;18.50;1.00;;;;;;5069436;28;20483;-70
2021/09/10 07:40:15;;;;;;;58.60;3.50;;;18.60;1.00;;;;;;5071552;28;20447;-70
2021/09/10 07:42:43;;;;;;;58.47;2.80;;;18.70;1.00;;;;;;5072250;28;20473;-70
2021/09/10 07:45:12;;;;;;;58.60;3.03;;;18.80;1.00;;;;;;5071583;28;20530;-71
2021/09/10 07:47:39;;;;;;;58.67;3.30;;;19.00;1.00;;;;;;5071777;28;20448;-71
2021/09/10 07:50:07;;;;;;;58.07;2.57;;;19.10;1.00;;;;;;5071701;28;20538;-70
2021/09/10 07:52:34;;;;;;;57.80;2.60;;;19.20;1.00;;;;;;5071790;28;20563;-70
2021/09/10 07:55:01;;;;;;;58.50;3.20;;;19.30;1.00;;;;;;5071785;28;20826;-70
2021/09/10 07:57:28;;;;;;;58.17;2.83;;;19.50;1.00;;;;;;5071517;28;20888;-70
2021/09/10 07:59:56;;;;;;;58.60;2.90;;;19.60;1.00;;;;;;5071215;28;20487;-70
2021/09/10 08:02:23;;;;;;;59.10;3.00;;;19.70;1.00;;;;;;5071937;28;20501;-70
2021/09/10 08:04:50;;;;;;;58.20;3.20;;;19.80;1.00;;;;;;5072171;28;20539;-70
2021/09/10 08:07:17;;;;;;;58.80;3.27;;;19.90;1.00;;;;;;5071727;28;21061;-70
2021/09/10 08:09:43;;;;;;;57.87;2.83;;;20.00;1.00;;;;;;5069580;28;20443;-70
2021/09/10 08:12:10;;;;;;;59.00;3.37;;;20.20;1.00;;;;;;5071426;28;20444;-70
2021/09/10 08:14:37;;;;;;;58.33;3.17;;;20.30;1.00;;;;;;5071366;28;20546;-70
2021/09/10 08:17:05;;;;;;;60.03;4.50;;;20.40;1.00;;;;;;5071355;28;20937;-70
2021/09/10 08:19:32;;;;;;;58.50;2.70;;;20.60;1.00;;;;;;5071237;28;20576;-70
2021/09/10 08:21:59;;;;;;;58.07;2.80;;;20.70;1.00;;;;;;5071320;28;20492;-70
2021/09/10 08:24:26;;;;;;;59.23;3.30;;;20.90;1.00;;;;;;5071654;28;20512;-70
2021/09/10 08:26:53;;;;;;;58.40;3.07;;;21.00;1.00;;;;;;5071245;28;20451;-71
2021/09/10 08:29:19;;;;;;;57.87;2.53;;;21.20;1.00;;;;;;5072187;28;20824;-70
2021/09/10 08:31:46;;;;;;;59.93;3.13;;;21.30;1.00;;;;;;5075466;28;20449;-70
2021/09/10 08:34:15;;;;;;;59.80;4.20;;;21.50;1.00;;;;;;5075304;28;20472;-70
2021/09/10 08:36:42;;;;;;;58.07;2.70;;;21.60;1.00;;;;;;5075074;28;20447;-68
2021/09/10 08:39:09;;;;;;;59.40;4.30;;;21.80;1.00;;;;;;5074601;28;20573;-68
2021/09/10 08:41:37;;;;;;;59.10;3.67;;;22.00;1.00;;;;;;5074191;28;20545;-68
2021/09/10 08:44:06;;;;;;;58.40;2.87;;;22.20;1.00;;;;;;5075146;28;20467;-68
2021/09/10 08:46:38;;;;;;;58.20;2.50;;;22.50;1.00;;;;;;5074931;28;20447;-68
2021/09/10 08:49:05;;;;;;;58.43;2.97;;;22.70;1.00;;;;;;5075002;28;20450;-69
2021/09/10 08:51:34;;;;;;;58.07;2.40;;;22.80;1.00;;;;;;5074974;28;20819;-69
2021/09/10 08:54:01;;;;;;;59.03;2.87;;;23.00;1.00;;;;;;5074595;28;20554;-69
2021/09/10 08:56:28;;;;;;;57.87;2.30;;;23.30;1.00;;;;;;5074997;28;20745;-69
2021/09/10 08:59:07;;;;;;;58.60;3.90;;;23.60;1.00;;;;;;5074805;28;20493;-70
2021/09/10 09:01:34;;;;;;;57.63;2.40;;;23.90;1.00;;;;;;5074897;28;20536;-70
2021/09/10 09:04:05;;;;;;;58.33;2.50;;;24.00;1.00;;;;;;5074500;28;20496;-70
2021/09/10 09:06:34;;;;;;;61.03;3.60;;;24.00;1.00;;;;;;5074551;28;20447;-69
2021/09/10 09:09:01;;;;;;;57.67;2.60;;;24.20;1.00;;;;;;5074717;28;20447;-69
2021/09/10 09:11:28;;;;;;;58.50;2.67;;;24.40;1.00;;;;;;5074335;28;20450;-70
2021/09/10 09:13:56;;;;;;;58.87;2.97;;;24.50;1.00;;;;;;5074542;28;20840;-70
2021/09/10 09:16:26;;;;;;;60.07;4.30;;;24.70;1.00;;;;;;5074695;28;20927;-70
2021/09/10 09:18:54;;;;;;;58.07;2.53;;;24.70;1.00;;;;;;5074213;28;20475;-70
2021/09/10 09:21:23;;;;;;;58.43;2.70;;;24.70;1.00;;;;;;5074347;28;20881;-70
2021/09/10 09:23:53;;;;;;;58.27;2.57;;;24.50;1.00;;;;;;5074469;28;20467;-70
2021/09/10 09:26:20;;;;;;;58.50;2.97;;;24.40;1.00;;;;;;5074448;28;20455;-70
2021/09/10 09:28:48;;;;;;;58.47;3.10;;;24.50;1.00;;;;;;5074194;28;20482;-70
2021/09/10 09:31:19;;;;;;;58.17;2.63;;;24.60;1.00;;;;;;5073874;28;20542;-70
2021/09/10 09:33:47;;;;;;;58.37;2.50;;;24.70;1.00;;;;;;5074277;28;20511;-70
2021/09/10 09:36:15;;;;;;;58.20;3.00;;;24.90;1.00;;;;;;5073965;28;20542;-70
2021/09/10 09:38:44;;;;;;;58.20;3.10;;;25.00;1.00;;;;;;5074042;28;20563;-70
2021/09/10 09:41:14;;;;;;;57.77;2.50;;;25.10;1.00;;;;;;5073674;28;20517;-70
2021/09/10 09:43:42;;;;;;;57.97;2.50;;;25.10;1.00;;;;;;5073935;28;20494;-70
2021/09/10 09:46:12;;;;;;;59.13;3.10;;;25.10;1.00;;;;;;5073986;28;20451;-70
2021/09/10 09:48:42;;;;;;;57.77;2.50;;;25.00;1.00;;;;;;5073820;28;20447;-70
2021/09/10 09:51:10;;;;;;;58.00;2.50;;;24.90;1.00;;;;;;5073627;28;20454;-70
2021/09/10 09:53:39;;;;;;;58.70;3.67;;;24.90;1.00;;;;;;5073781;28;20523;-70
2021/09/10 09:56:07;;;;;;;58.77;2.57;;;25.30;1.00;;;;;;5073615;28;20497;-69
2021/09/10 09:58:37;;;;;;;58.70;3.33;;;26.20;1.00;;;;;;5073581;28;20514;-69
2021/09/10 10:01:04;;;;;;;59.27;3.10;;;26.90;1.00;;;;;;5073216;28;20447;-70
2021/09/10 10:03:31;;;;;;;59.67;3.10;;;27.60;1.00;;;;;;5073307;28;21081;-69
2021/09/10 10:06:09;;;;;;;58.07;2.70;;;28.50;1.00;;;;;;5073380;28;20963;-69
2021/09/10 10:08:42;;;;;;;57.73;2.33;;;29.30;1.00;;;;;;5073499;28;20441;-69
2021/09/10 10:11:14;;;;;;;58.57;2.90;;;29.60;1.00;;;;;;5073113;28;20481;-70
2021/09/10 10:13:43;;;;;;;58.90;3.07;;;29.70;1.00;;;;;;5073357;28;20504;-69
2021/09/10 10:16:35;;;;;;;59.03;2.70;;;29.40;1.00;;;;;;5073292;28;20448;-69
2021/09/10 10:19:02;;;;;;;58.27;2.93;;;29.10;1.00;;;;;;5073286;28;20483;-69
2021/09/10 10:21:51;;;;;;;58.20;2.63;;;29.40;1.00;;;;;;5073083;28;20442;-69
2021/09/10 10:24:37;;;;;;;59.30;2.90;;;30.40;1.00;;;;;;5073393;28;20827;-69
2021/09/10 10:27:26;;;;;;;57.40;2.47;;;31.40;1.00;;;;;;5073170;28;20814;-69
2021/09/10 10:29:55;;;;;;;57.87;2.30;;;32.10;1.00;;;;;;5072690;28;20863;-69
2021/09/10 10:32:30;;;;;;;59.17;2.87;;;32.60;1.00;;;;;;5072874;28;20483;-70
2021/09/10 10:35:23;;;;;;;57.37;2.20;;;33.00;1.00;;;;;;5073084;28;20443;-69
2021/09/10 10:37:52;;;;;;;57.57;2.73;;;33.50;1.00;;;;;;5073248;28;20490;-69
2021/09/10 10:40:31;;;;;;;57.70;2.57;;;34.00;1.00;;;;;;5072410;28;20969;-69
2021/09/10 10:43:00;;;;;;;57.47;2.40;;;33.70;1.00;;;;;;5072952;28;20897;-69
2021/09/10 10:46:00;;;;;;;59.07;2.97;;;33.00;1.00;;;;;;5072666;28;20463;-69
2021/09/10 10:48:52;;;;;;;57.77;2.60;;;32.20;1.00;;;;;;5072633;28;20439;-69
2021/09/10 10:51:41;;;;;;;58.20;3.00;;;31.40;1.00;;;;;;5072509;28;20809;-69
2021/09/10 10:54:15;;;;;;;58.30;2.77;;;31.10;1.00;;;;;;5072379;28;20478;-69
2021/09/10 10:56:47;;;;;;;58.63;2.70;;;31.10;1.00;;;;;;5072414;28;20450;-69
2021/09/10 10:59:29;;;;;;;57.47;2.60;;;31.80;1.00;;;;;;5072077;28;20530;-69
2021/09/10 11:02:34;;;;;;;57.27;2.60;;;33.10;1.00;;;;;;5072629;28;20518;-69
2021/09/10 11:05:15;;;;;;;57.70;2.40;;;33.80;1.00;;;;;;5072374;28;20806;-69
2021/09/10 11:07:44;;;;;;;56.97;2.03;;;34.50;1.00;;;;;;5072405;28;20545;-69
2021/09/10 11:10:14;;;;;;;58.00;2.80;;;34.80;1.00;;;;;;5072162;28;20439;-69
2021/09/10 11:12:41;;;;;;;57.37;2.37;;;34.40;1.00;;;;;;5072256;28;20907;-69
2021/09/10 11:15:23;;;;;;;58.60;2.80;;;33.70;1.00;;;;;;5072125;28;20451;-69
2021/09/10 11:17:58;;;;;;;57.67;2.43;;;33.30;1.00;;;;;;5072030;28;20446;-69
2021/09/10 11:20:29;;;;;;;57.20;2.50;;;32.80;1.00;;;;;;5071987;28;20565;-69
2021/09/10 11:22:56;;;;;;;57.80;2.73;;;32.40;1.00;;;;;;5072194;28;20546;-69
2021/09/10 11:25:23;;;;;;;57.33;2.50;;;32.70;1.00;;;;;;5071994;28;20475;-69
2021/09/10 11:27:50;;;;;;;57.50;2.50;;;33.50;1.00;;;;;;5071971;28;20512;-69
2021/09/10 11:30:17;;;;;;;57.17;2.60;;;34.30;1.00;;;;;;5071641;28;20444;-69
2021/09/10 11:32:44;;;;;;;57.90;2.73;;;35.30;1.00;;;;;;5072077;28;20471;-69
2021/09/10 11:35:22;;;;;;;58.30;2.80;;;36.40;1.00;;;;;;5071919;28;20534;-69
2021/09/10 11:37:55;;;;;;;57.50;2.53;;;37.40;1.00;;;;;;5071962;28;20478;-69
2021/09/10 11:40:33;;;;;;;56.80;2.30;;;38.20;1.00;;;;;;5071564;28;20570;-69
2021/09/10 11:43:06;;;;;;;58.50;3.33;;;37.90;1.00;;;;;;5071809;28;20549;-69
2021/09/10 11:45:35;;;;;;;57.40;2.70;;;37.10;1.00;;;;;;5071955;28;20443;-69
2021/09/10 11:48:04;;;;;;;57.67;2.63;;;35.80;1.00;;;;;;5071842;28;20453;-69
2021/09/10 11:50:53;;;;;;;57.30;2.30;;;34.70;1.00;;;;;;5071546;28;20440;-69
2021/09/10 11:53:24;;;;;;;58.10;2.90;;;33.70;1.00;;;;;;5071998;28;20495;-69
2021/09/10 11:55:56;;;;;;;57.27;2.30;;;33.00;1.00;;;;;;5071915;28;20717;-69
2021/09/10 11:58:34;;;;;;;57.47;2.57;;;32.80;1.00;;;;;;5071642;28;20534;-69
2021/09/10 12:01:22;;;;;;;57.93;2.70;;;32.80;1.00;;;;;;5071350;28;20550;-69
2021/09/10 12:03:51;;;;;;;57.90;2.70;;;32.50;1.00;;;;;;5071626;28;20485;-69
2021/09/10 12:06:20;;;;;;;57.97;2.70;;;31.70;1.00;;;;;;5075940;28;20537;-69
2021/09/10 12:09:07;;;;;;;58.87;3.03;;;31.10;1.00;;;;;;5075912;28;20449;-69
2021/09/10 12:11:34;;;;;;;59.90;2.20;;;30.60;1.00;;;;;;5075620;28;20541;-68
2021/09/10 12:14:01;;;;;;;58.50;2.40;;;30.60;1.00;;;;;;5075519;28;20845;-69
2021/09/10 12:16:29;;;;;;;57.70;2.50;;;30.60;1.00;;;;;;5075501;28;20460;-69
2021/09/10 12:19:02;;;;;;;57.77;2.40;;;31.00;1.00;;;;;;5075636;28;20773;-69
2021/09/10 12:21:29;;;;;;;57.90;2.70;;;31.60;1.00;;;;;;5075482;28;20882;-69
2021/09/10 12:24:08;;;;;;;58.47;3.07;;;31.80;1.00;;;;;;5075406;28;20553;-69
2021/09/10 12:26:49;;;;;;;57.37;2.33;;;31.60;1.00;;;;;;5075495;28;20526;-69
2021/09/10 12:29:21;;;;;;;57.60;2.13;;;31.00;1.00;;;;;;5075203;28;20939;-70
2021/09/10 12:31:47;;;;;;;58.97;2.70;;;30.80;1.00;;;;;;5075473;28;20458;-70
2021/09/10 12:34:14;;;;;;;58.00;2.40;;;30.80;1.00;;;;;;5075294;28;20506;-70
2021/09/10 12:36:41;;;;;;;58.30;2.80;;;31.00;1.00;;;;;;5075153;28;20447;-70
2021/09/10 12:39:09;;;;;;;61.03;3.57;;;31.30;1.00;;;;;;5074992;28;20526;-70
2021/09/10 12:41:37;;;;;;;57.97;2.60;;;31.60;1.00;;;;;;5075328;28;20490;-70
2021/09/10 12:44:08;;;;;;;57.60;2.33;;;31.50;1.00;;;;;;5075107;28;20471;-69
2021/09/10 12:46:36;;;;;;;57.87;2.40;;;31.40;1.00;;;;;;5075019;28;20815;-70
2021/09/10 12:49:03;;;;;;;57.77;2.37;;;31.10;1.00;;;;;;5074860;28;20530;-69
2021/09/10 12:51:29;;;;;;;58.20;3.00;;;31.30;1.00;;;;;;5074629;28;21034;-69
2021/09/10 12:53:56;;;;;;;58.20;2.77;;;31.70;1.00;;;;;;5074805;28;21001;-69
2021/09/10 12:56:25;;;;;;;58.37;3.23;;;32.40;1.00;;;;;;5074806;28;20547;-70